Time;durP1;ratioP1;P1;durP2;ratioP2;P2;SDS_P1;SDS_P2;PMS_P1;PMS_P2;Temp;Humidity;BMP_temperature;BMP_pressure;BME280_temperature;BME280_humidity;BME280_pressure;Samples;Min_cycle;Max_cycle;Signal;HPM_P1;HPM_P2
2022/06/06 00:00:53;;;;;;;32.03;28.58;;;19.00;99.90;;;;;;2085573;28;20021;-68
2022/06/06 00:01:54;;;;;;;32.80;29.20;;;19.00;99.90;;;;;;2084103;28;20094;-68
2022/06/06 00:02:54;;;;;;;33.42;29.65;;;19.00;99.90;;;;;;2083518;28;20053;-68
2022/06/06 00:03:55;;;;;;;34.72;28.48;;;19.00;99.90;;;;;;2084309;28;20021;-68
2022/06/06 00:04:57;;;;;;;32.72;29.00;;;19.00;99.90;;;;;;2084092;28;20056;-68
2022/06/06 00:05:58;;;;;;;38.75;34.58;;;19.00;99.90;;;;;;2085222;28;20555;-68
2022/06/06 00:06:59;;;;;;;42.15;35.63;;;19.00;99.90;;;;;;2085955;28;20410;-68
2022/06/06 00:08:00;;;;;;;42.03;35.22;;;19.00;99.90;;;;;;2089327;28;20053;-68
2022/06/06 00:09:01;;;;;;;46.67;37.10;;;19.00;99.90;;;;;;2085489;28;20101;-68
2022/06/06 00:10:03;;;;;;;45.42;38.17;;;19.00;99.90;;;;;;2086324;28;20040;-68
2022/06/06 00:11:04;;;;;;;55.85;41.55;;;19.00;99.90;;;;;;2085139;28;20412;-68
2022/06/06 00:12:06;;;;;;;50.80;41.35;;;19.00;99.90;;;;;;2082640;28;20021;-68
2022/06/06 00:13:07;;;;;;;50.80;40.72;;;19.00;99.90;;;;;;2084392;28;20104;-68
2022/06/06 00:14:10;;;;;;;55.95;43.78;;;19.00;99.90;;;;;;2087060;28;20107;-68
2022/06/06 00:15:14;;;;;;;53.97;43.28;;;18.90;99.90;;;;;;2083583;28;20017;-68
2022/06/06 00:16:14;;;;;;;54.20;43.83;;;18.90;99.90;;;;;;2088712;28;20545;-68
2022/06/06 00:17:15;;;;;;;57.33;43.35;;;18.90;99.90;;;;;;2085568;28;20432;-68
2022/06/06 00:18:16;;;;;;;57.30;43.20;;;18.80;99.90;;;;;;2082273;28;20029;-68
2022/06/06 00:19:16;;;;;;;54.85;43.53;;;18.80;99.90;;;;;;2083288;28;20056;-68
2022/06/06 00:20:17;;;;;;;57.83;44.20;;;18.80;99.90;;;;;;2084041;28;20120;-68
2022/06/06 00:21:18;;;;;;;53.05;44.20;;;18.80;99.90;;;;;;2082899;28;20025;-68
2022/06/06 00:22:18;;;;;;;52.90;42.97;;;18.80;99.90;;;;;;2087421;28;20060;-68
2022/06/06 00:23:19;;;;;;;60.08;45.58;;;18.80;99.90;;;;;;2083468;28;20029;-68
2022/06/06 00:24:20;;;;;;;61.22;46.33;;;18.80;99.90;;;;;;2087123;28;20527;-68
2022/06/06 00:25:21;;;;;;;61.42;47.33;;;18.80;99.90;;;;;;2083093;28;20025;-68
2022/06/06 00:26:21;;;;;;;56.97;45.38;;;18.70;99.90;;;;;;2084972;28;20159;-68
2022/06/06 00:27:22;;;;;;;70.82;48.53;;;18.70;99.90;;;;;;2085022;28;20036;-68
2022/06/06 00:28:22;;;;;;;60.00;46.00;;;18.70;99.90;;;;;;2081057;28;20021;-68
2022/06/06 00:29:23;;;;;;;63.55;49.72;;;18.70;99.90;;;;;;2080991;28;20033;-69
2022/06/06 00:30:24;;;;;;;68.45;49.58;;;18.70;99.90;;;;;;2084278;28;20021;-69
2022/06/06 00:35:23;;;;;;;71.90;51.13;;;18.60;99.90;;;;;;2080423;28;20017;-69
2022/06/06 00:36:24;;;;;;;67.47;52.50;;;18.50;99.90;;;;;;2080686;28;20013;-69
2022/06/06 00:37:27;;;;;;;73.30;52.10;;;18.50;99.90;;;;;;2084254;28;20032;-69
2022/06/06 00:38:28;;;;;;;72.80;52.75;;;18.50;99.90;;;;;;2082475;28;20021;-69
2022/06/06 00:39:28;;;;;;;71.65;52.28;;;18.50;99.90;;;;;;2083400;28;20017;-69
2022/06/06 00:40:30;;;;;;;68.22;51.60;;;18.50;99.90;;;;;;2084937;28;20071;-69
2022/06/06 00:41:31;;;;;;;75.50;55.72;;;18.50;99.90;;;;;;2088102;28;20021;-69
2022/06/06 00:42:35;;;;;;;74.07;53.58;;;18.50;99.90;;;;;;2082567;28;20036;-69
2022/06/06 00:43:36;;;;;;;78.93;55.85;;;18.50;99.90;;;;;;2083322;28;20037;-69
2022/06/06 00:44:37;;;;;;;74.45;55.92;;;18.40;99.90;;;;;;2081351;28;20030;-69
2022/06/06 00:45:39;;;;;;;78.13;56.55;;;18.50;99.90;;;;;;2082272;28;20051;-69
2022/06/06 00:46:44;;;;;;;73.68;56.30;;;18.40;99.90;;;;;;2081232;28;20131;-69
2022/06/06 00:47:50;;;;;;;75.18;54.70;;;18.40;99.90;;;;;;2086506;28;20028;-69
2022/06/06 00:48:51;;;;;;;74.60;53.92;;;18.40;99.90;;;;;;2083694;28;20017;-69
2022/06/06 00:50:05;;;;;;;70.85;52.17;;;18.40;99.90;;;;;;2082560;28;20032;-69
2022/06/06 00:51:15;;;;;;;69.50;52.08;;;18.40;99.90;;;;;;2082985;28;20531;-69
2022/06/06 00:52:29;;;;;;;73.07;51.30;;;18.40;99.90;;;;;;2082349;28;20035;-69
2022/06/06 00:53:42;;;;;;;70.90;52.28;;;18.40;99.90;;;;;;2082835;28;20025;-69
2022/06/06 00:54:45;;;;;;;63.60;48.03;;;18.40;99.90;;;;;;2085135;28;20017;-69
2022/06/06 00:55:50;;;;;;;65.55;49.03;;;18.40;99.90;;;;;;2080171;28;20039;-69
2022/06/06 00:57:03;;;;;;;63.58;49.63;;;18.40;99.90;;;;;;2080475;28;20021;-69
2022/06/06 00:58:12;;;;;;;66.85;49.08;;;18.30;99.90;;;;;;2087566;28;20431;-69
2022/06/06 00:59:19;;;;;;;70.90;51.65;;;18.30;99.90;;;;;;2083790;28;20437;-69
2022/06/06 01:00:21;;;;;;;70.38;50.95;;;18.30;99.90;;;;;;2083180;28;20472;-68
2022/06/06 01:01:23;;;;;;;67.97;51.67;;;18.20;99.90;;;;;;2087372;28;20059;-69
2022/06/06 01:02:24;;;;;;;65.10;50.60;;;18.20;99.90;;;;;;2080384;28;20159;-69
2022/06/06 01:03:26;;;;;;;67.22;51.20;;;18.20;99.90;;;;;;2083720;28;20139;-69
2022/06/06 01:04:28;;;;;;;67.03;51.58;;;18.20;99.90;;;;;;2081399;28;20021;-69
2022/06/06 01:05:30;;;;;;;66.00;48.65;;;18.20;99.90;;;;;;2080895;28;20022;-68
2022/06/06 01:06:34;;;;;;;67.78;51.15;;;18.20;99.90;;;;;;2084768;28;20022;-69
2022/06/06 01:07:35;;;;;;;58.58;46.70;;;18.20;99.90;;;;;;2084499;28;20075;-68
2022/06/06 01:08:38;;;;;;;61.97;48.13;;;18.20;99.90;;;;;;2080652;28;20025;-69
2022/06/06 01:09:41;;;;;;;67.80;49.05;;;18.20;99.90;;;;;;2084912;28;20055;-69
2022/06/06 01:10:41;;;;;;;62.05;47.50;;;18.10;99.90;;;;;;2086226;28;20041;-69
2022/06/06 01:12:06;;;;;;;61.15;46.92;;;18.10;99.90;;;;;;2083238;28;20093;-69
2022/06/06 01:13:09;;;;;;;60.67;45.13;;;18.10;99.90;;;;;;2081350;28;20036;-69
2022/06/06 01:14:13;;;;;;;57.15;44.83;;;18.10;99.90;;;;;;2080140;28;20562;-69
2022/06/06 01:15:16;;;;;;;55.00;46.10;;;18.10;99.90;;;;;;2080591;28;20033;-69
2022/06/06 01:16:28;;;;;;;57.63;42.47;;;18.10;99.90;;;;;;2083960;28;20025;-69
2022/06/06 01:17:39;;;;;;;53.25;42.40;;;18.10;99.90;;;;;;2082536;28;20072;-69
2022/06/06 01:19:05;;;;;;;56.47;44.50;;;18.10;99.90;;;;;;2080609;28;20063;-69
2022/06/06 01:20:06;;;;;;;54.85;43.15;;;18.10;99.90;;;;;;2086754;28;20048;-69
2022/06/06 01:21:32;;;;;;;58.83;44.33;;;18.10;99.90;;;;;;2084188;28;20029;-69
2022/06/06 01:22:54;;;;;;;50.53;41.63;;;18.10;99.90;;;;;;2081134;28;20117;-69
2022/06/06 01:24:15;;;;;;;55.03;43.08;;;18.10;99.90;;;;;;2080771;28;20060;-69
2022/06/06 01:25:24;;;;;;;52.72;42.10;;;18.10;99.90;;;;;;2081747;28;20445;-69
2022/06/06 01:26:41;;;;;;;53.75;41.08;;;18.10;99.90;;;;;;2083880;28;20061;-69
2022/06/06 01:28:20;;;;;;;51.35;39.58;;;18.10;99.90;;;;;;2081382;28;20021;-69
2022/06/06 01:29:29;;;;;;;57.90;41.63;;;18.00;99.90;;;;;;2083606;28;20456;-69
2022/06/06 01:30:41;;;;;;;48.88;39.15;;;18.00;99.90;;;;;;2084066;28;20025;-69
2022/06/06 01:31:48;;;;;;;47.80;39.42;;;18.00;99.90;;;;;;2082304;28;20497;-69
2022/06/06 01:32:55;;;;;;;50.65;41.65;;;18.00;99.90;;;;;;2082757;28;20059;-69
2022/06/06 01:33:59;;;;;;;50.53;38.08;;;18.00;99.90;;;;;;2083166;28;20091;-69
2022/06/06 01:34:59;;;;;;;46.63;37.72;;;18.00;99.90;;;;;;2081786;28;20028;-69
2022/06/06 01:36:01;;;;;;;49.63;40.00;;;18.00;99.90;;;;;;2082819;28;20067;-69
2022/06/06 01:37:03;;;;;;;49.05;39.63;;;18.00;99.90;;;;;;2082644;28;20030;-69
2022/06/06 01:38:04;;;;;;;47.38;38.08;;;18.00;99.90;;;;;;2080859;28;20029;-69
2022/06/06 01:39:11;;;;;;;48.13;39.20;;;18.00;99.90;;;;;;2082401;28;20087;-69
2022/06/06 01:40:15;;;;;;;47.40;38.42;;;18.00;99.90;;;;;;2083365;28;20036;-69
2022/06/06 01:41:25;;;;;;;47.28;38.70;;;18.00;99.90;;;;;;2083371;28;20113;-69
2022/06/06 01:42:31;;;;;;;47.47;38.88;;;18.00;99.90;;;;;;2080106;28;20029;-69
2022/06/06 01:43:57;;;;;;;48.05;38.88;;;18.00;99.90;;;;;;2082549;28;20029;-69
2022/06/06 01:45:02;;;;;;;46.80;38.83;;;18.00;99.90;;;;;;2082394;28;20378;-69
2022/06/06 01:46:08;;;;;;;52.28;40.95;;;18.00;99.90;;;;;;2080012;28;20041;-69
2022/06/06 01:47:21;;;;;;;47.08;38.17;;;18.00;99.90;;;;;;2082651;28;20075;-69
2022/06/06 01:48:26;;;;;;;46.60;38.55;;;18.00;99.90;;;;;;2083755;28;20554;-69
2022/06/06 01:49:29;;;;;;;49.78;38.35;;;18.00;99.90;;;;;;2081526;28;20605;-69
2022/06/06 01:50:31;;;;;;;47.10;39.08;;;18.00;99.90;;;;;;2086237;28;20470;-69
2022/06/06 01:51:32;;;;;;;46.53;37.88;;;18.00;99.90;;;;;;2080864;28;20025;-69
2022/06/06 01:52:56;;;;;;;46.65;38.38;;;18.00;99.90;;;;;;2085367;28;20014;-69
2022/06/06 01:53:57;;;;;;;45.78;38.30;;;18.00;99.90;;;;;;2082044;28;20037;-69
2022/06/06 01:54:58;;;;;;;50.65;38.47;;;18.00;99.90;;;;;;2084486;28;20515;-69
2022/06/06 01:55:59;;;;;;;40.90;35.83;;;18.00;99.90;;;;;;2082907;28;20436;-69
2022/06/06 01:57:01;;;;;;;46.55;36.55;;;17.90;99.90;;;;;;2090998;28;20020;-69
2022/06/06 01:58:06;;;;;;;43.45;37.92;;;17.90;99.90;;;;;;2081575;28;20053;-69
2022/06/06 01:59:07;;;;;;;45.08;36.70;;;18.00;99.90;;;;;;2087633;28;20503;-69
2022/06/06 02:00:08;;;;;;;43.15;35.10;;;17.90;99.90;;;;;;2084991;28;20095;-69
2022/06/06 02:01:10;;;;;;;43.40;36.15;;;18.00;99.90;;;;;;2087050;28;20099;-69
2022/06/06 02:02:11;;;;;;;45.38;35.75;;;18.00;99.90;;;;;;2083180;28;20040;-69
2022/06/06 02:03:11;;;;;;;43.42;34.38;;;18.00;99.90;;;;;;2081665;28;20552;-68
2022/06/06 02:04:12;;;;;;;45.72;35.53;;;18.00;99.90;;;;;;2086292;28;20393;-69
2022/06/06 02:05:14;;;;;;;42.05;34.95;;;18.00;99.90;;;;;;2087765;28;20124;-69
2022/06/06 02:06:15;;;;;;;38.63;34.25;;;17.90;99.90;;;;;;2085182;28;20029;-69
2022/06/06 02:07:16;;;;;;;38.05;33.72;;;17.90;99.90;;;;;;2086268;28;20561;-69
2022/06/06 02:08:17;;;;;;;42.40;33.92;;;17.90;99.90;;;;;;2084773;28;20036;-68
2022/06/06 02:09:18;;;;;;;43.03;33.80;;;17.90;99.90;;;;;;2087818;28;20032;-69
2022/06/06 02:10:20;;;;;;;41.97;33.85;;;17.90;99.90;;;;;;2083212;28;20093;-69
2022/06/06 02:11:20;;;;;;;41.20;33.45;;;17.90;99.90;;;;;;2082346;28;20025;-69
2022/06/06 02:12:21;;;;;;;40.60;32.90;;;17.90;99.90;;;;;;2087424;28;20040;-69
2022/06/06 02:13:21;;;;;;;43.17;33.95;;;17.90;99.90;;;;;;2085278;28;20044;-69
2022/06/06 02:14:22;;;;;;;39.97;33.15;;;17.90;99.90;;;;;;2083729;28;20548;-69
2022/06/06 02:15:25;;;;;;;39.97;33.47;;;17.90;99.90;;;;;;2087544;28;20393;-69
2022/06/06 02:16:26;;;;;;;43.47;34.50;;;17.90;99.90;;;;;;2083456;28;20020;-69
2022/06/06 02:17:26;;;;;;;38.38;31.73;;;17.90;99.90;;;;;;2085462;28;20071;-69
2022/06/06 02:18:27;;;;;;;38.28;32.20;;;17.90;99.90;;;;;;2084330;28;20025;-69
2022/06/06 02:19:27;;;;;;;38.88;32.17;;;17.90;99.90;;;;;;2084177;28;20499;-69
2022/06/06 02:20:31;;;;;;;41.42;32.22;;;17.90;99.90;;;;;;2087094;28;20041;-69
2022/06/06 02:21:32;;;;;;;43.50;32.92;;;17.90;99.90;;;;;;2084568;28;20025;-69
2022/06/06 02:22:33;;;;;;;39.42;31.88;;;18.00;99.90;;;;;;2084954;28;20025;-68
2022/06/06 02:23:33;;;;;;;38.97;31.20;;;17.90;99.90;;;;;;2086207;28;20032;-69
2022/06/06 02:24:34;;;;;;;37.03;31.63;;;18.00;99.90;;;;;;2082109;28;20029;-69
2022/06/06 02:25:36;;;;;;;36.45;30.52;;;18.00;99.90;;;;;;2082731;28;20017;-69
2022/06/06 02:26:37;;;;;;;39.42;31.48;;;18.00;99.90;;;;;;2086989;28;21713;-69
2022/06/06 02:27:39;;;;;;;39.50;31.40;;;17.90;99.90;;;;;;2086751;28;20539;-69
2022/06/06 02:28:40;;;;;;;34.78;29.98;;;17.90;99.90;;;;;;2088058;28;20703;-69
2022/06/06 02:29:43;;;;;;;40.53;31.45;;;17.90;99.90;;;;;;2085073;28;20021;-69
2022/06/06 02:30:44;;;;;;;37.72;30.90;;;17.90;99.90;;;;;;2085823;28;20384;-69
2022/06/06 02:31:44;;;;;;;39.28;30.25;;;17.90;99.90;;;;;;2085857;28;20046;-69
2022/06/06 02:32:46;;;;;;;37.67;31.25;;;17.90;99.90;;;;;;2083157;28;20024;-69
2022/06/06 02:33:46;;;;;;;37.65;29.80;;;17.90;99.90;;;;;;2085183;28;20016;-69
2022/06/06 02:34:47;;;;;;;35.58;29.83;;;17.90;99.90;;;;;;2081332;28;20025;-69
2022/06/06 02:35:48;;;;;;;36.55;29.63;;;17.90;99.90;;;;;;2083916;28;20022;-69
2022/06/06 02:36:49;;;;;;;37.00;29.83;;;17.90;99.90;;;;;;2084347;28;20480;-69
2022/06/06 02:37:51;;;;;;;36.25;29.75;;;17.90;99.90;;;;;;2082116;28;20021;-69
2022/06/06 02:38:52;;;;;;;37.55;30.70;;;17.90;99.90;;;;;;2083425;28;20086;-69
2022/06/06 02:39:53;;;;;;;39.30;30.92;;;17.90;99.90;;;;;;2083176;28;20186;-69
2022/06/06 02:40:54;;;;;;;35.13;29.83;;;17.90;99.90;;;;;;2083195;28;20572;-69
2022/06/06 02:41:54;;;;;;;36.63;30.80;;;17.90;99.90;;;;;;2088295;28;20024;-69
2022/06/06 02:42:55;;;;;;;35.53;29.92;;;17.90;99.90;;;;;;2084461;28;20017;-69
2022/06/06 02:43:58;;;;;;;34.78;29.45;;;17.90;99.90;;;;;;2085005;28;20112;-69
2022/06/06 02:44:59;;;;;;;34.33;29.55;;;17.90;99.90;;;;;;2087186;28;20029;-69
2022/06/06 02:46:01;;;;;;;39.10;31.73;;;17.90;99.90;;;;;;2085015;28;20057;-69
2022/06/06 02:47:03;;;;;;;39.47;31.98;;;17.90;99.90;;;;;;2081895;28;20584;-69
2022/06/06 02:48:04;;;;;;;37.40;30.58;;;17.90;99.90;;;;;;2082977;28;20033;-69
2022/06/06 02:49:05;;;;;;;38.70;31.58;;;17.90;99.90;;;;;;2082794;28;20037;-69
2022/06/06 02:50:07;;;;;;;39.60;32.58;;;18.00;99.90;;;;;;2086486;28;20633;-69
2022/06/06 02:51:08;;;;;;;39.03;31.73;;;17.90;99.90;;;;;;2084699;28;20022;-69
2022/06/06 02:52:09;;;;;;;38.80;31.50;;;17.90;99.90;;;;;;2089358;28;20028;-69
2022/06/06 02:53:10;;;;;;;40.08;31.73;;;18.00;99.90;;;;;;2089460;28;20025;-69
2022/06/06 02:54:10;;;;;;;33.55;28.95;;;17.90;99.90;;;;;;2081200;28;20029;-69
2022/06/06 02:55:13;;;;;;;31.65;28.10;;;17.90;99.90;;;;;;2083261;28;20029;-69
2022/06/06 02:56:14;;;;;;;37.13;31.10;;;17.90;99.90;;;;;;2086234;28;20018;-69
2022/06/06 02:57:14;;;;;;;35.92;30.80;;;17.90;99.90;;;;;;2084467;28;20021;-69
2022/06/06 02:58:15;;;;;;;38.85;33.08;;;17.90;99.90;;;;;;2086699;28;20029;-69
2022/06/06 02:59:19;;;;;;;38.45;32.78;;;17.90;99.90;;;;;;2085104;28;20426;-69
2022/06/06 03:00:24;;;;;;;43.85;32.65;;;17.90;99.90;;;;;;2086009;28;20051;-69
2022/06/06 03:01:25;;;;;;;38.28;31.67;;;17.90;99.90;;;;;;2084987;28;20555;-69
2022/06/06 03:02:26;;;;;;;36.22;31.75;;;17.90;99.90;;;;;;2084723;28;20455;-69
2022/06/06 03:03:28;;;;;;;39.83;32.08;;;17.90;99.90;;;;;;2086729;28;20457;-69
2022/06/06 03:04:29;;;;;;;38.20;31.23;;;17.90;99.90;;;;;;2086016;28;20029;-69
2022/06/06 03:05:57;;;;;;;39.65;32.33;;;18.00;99.90;;;;;;2083278;28;20030;-69
2022/06/06 03:07:25;;;;;;;43.88;33.45;;;17.90;99.90;;;;;;2084223;28;20076;-69
2022/06/06 03:08:45;;;;;;;38.33;31.45;;;17.90;99.90;;;;;;2082321;28;20017;-69
2022/06/06 03:10:18;;;;;;;40.80;32.20;;;17.80;99.90;;;;;;2084745;28;20033;-69
2022/06/06 03:11:45;;;;;;;39.63;32.60;;;17.80;99.90;;;;;;2086439;28;20041;-69
2022/06/06 03:13:19;;;;;;;39.03;31.73;;;17.80;99.90;;;;;;2087966;28;20024;-68
2022/06/06 03:14:34;;;;;;;36.92;30.35;;;17.80;99.90;;;;;;2085630;28;20184;-69
2022/06/06 03:21:23;;;;;;;31.08;26.48;;;17.80;99.90;;;;;;2082852;28;20036;-69
2022/06/06 03:22:36;;;;;;;32.05;27.38;;;17.70;99.90;;;;;;2083101;28;20665;-69
2022/06/06 03:23:54;;;;;;;33.17;28.77;;;17.80;99.90;;;;;;2084375;28;20029;-68
2022/06/06 03:25:09;;;;;;;35.78;29.55;;;17.80;99.90;;;;;;2085205;28;20070;-68
2022/06/06 03:26:25;;;;;;;40.05;31.35;;;17.80;99.90;;;;;;2086640;28;20535;-68
2022/06/06 03:27:26;;;;;;;33.45;27.08;;;17.80;99.90;;;;;;2082453;28;20025;-69
2022/06/06 03:28:48;;;;;;;36.42;31.10;;;17.80;99.90;;;;;;2087402;28;20373;-68
2022/06/06 03:30:05;;;;;;;36.10;29.40;;;17.90;99.90;;;;;;2082665;28;20017;-68
2022/06/06 03:31:34;;;;;;;38.78;30.90;;;17.90;99.90;;;;;;2082911;28;20027;-68
2022/06/06 03:32:34;;;;;;;31.73;27.40;;;17.90;99.90;;;;;;2080983;28;20091;-68
2022/06/06 03:34:06;;;;;;;35.15;28.90;;;17.90;99.90;;;;;;2082397;28;20088;-68
2022/06/06 03:35:43;;;;;;;33.53;28.40;;;17.90;99.90;;;;;;2082041;28;20129;-68
2022/06/06 03:37:10;;;;;;;30.60;27.27;;;17.90;99.90;;;;;;2082038;28;20022;-68
2022/06/06 03:38:35;;;;;;;33.10;28.98;;;17.90;99.90;;;;;;2081197;28;20112;-68
2022/06/06 03:39:55;;;;;;;37.22;29.92;;;17.90;99.90;;;;;;2084159;28;20048;-68
2022/06/06 03:41:05;;;;;;;37.67;31.23;;;17.90;99.90;;;;;;2086639;28;20016;-68
2022/06/06 03:42:08;;;;;;;33.60;27.67;;;17.90;99.90;;;;;;2085481;28;20039;-69
2022/06/06 03:43:32;;;;;;;36.08;30.52;;;17.90;99.90;;;;;;2082985;28;20043;-69
2022/06/06 03:44:44;;;;;;;34.85;30.65;;;17.90;99.90;;;;;;2081404;28;20101;-68
2022/06/06 03:45:52;;;;;;;37.53;31.98;;;17.90;99.90;;;;;;2081146;28;20385;-68
2022/06/06 03:47:10;;;;;;;39.58;31.55;;;17.90;99.90;;;;;;2085630;28;20063;-68
2022/06/06 03:48:44;;;;;;;35.63;30.00;;;18.00;99.90;;;;;;2086010;28;20521;-68
2022/06/06 03:50:11;;;;;;;34.47;30.38;;;17.90;99.90;;;;;;2085763;28;20024;-68
2022/06/06 03:51:40;;;;;;;31.88;26.60;;;17.90;99.90;;;;;;2086646;28;20078;-68
2022/06/06 03:52:48;;;;;;;34.25;28.67;;;17.90;99.90;;;;;;2082082;28;20017;-68
2022/06/06 03:54:33;;;;;;;39.03;31.20;;;17.90;99.90;;;;;;2081777;28;20091;-68
2022/06/06 03:56:05;;;;;;;31.60;27.63;;;17.90;99.90;;;;;;2078742;28;20103;-68
2022/06/06 03:57:15;;;;;;;34.58;28.80;;;17.90;99.90;;;;;;2079107;28;20099;-68
2022/06/06 03:58:18;;;;;;;34.97;29.05;;;17.90;99.90;;;;;;2085359;28;20041;-69
2022/06/06 03:59:19;;;;;;;34.80;28.98;;;17.90;99.90;;;;;;2084956;28;20028;-68
2022/06/06 04:00:22;;;;;;;31.98;28.42;;;17.90;99.90;;;;;;2084353;28;20930;-68
2022/06/06 04:01:24;;;;;;;34.95;29.52;;;17.90;99.90;;;;;;2082803;28;20077;-69
2022/06/06 04:02:34;;;;;;;35.03;29.40;;;17.90;99.90;;;;;;2081813;28;20022;-69
2022/06/06 04:03:36;;;;;;;31.92;26.08;;;18.00;99.90;;;;;;2086899;28;20025;-69
2022/06/06 04:04:38;;;;;;;31.90;27.27;;;17.90;99.90;;;;;;2086752;28;20037;-69
2022/06/06 04:05:39;;;;;;;28.92;25.83;;;18.00;99.90;;;;;;2082650;28;20032;-69
2022/06/06 04:06:40;;;;;;;34.78;26.90;;;18.00;99.90;;;;;;2083542;28;20608;-69
2022/06/06 04:07:41;;;;;;;32.70;27.27;;;18.00;99.90;;;;;;2082518;28;20393;-69
2022/06/06 04:08:42;;;;;;;29.05;25.30;;;18.00;99.90;;;;;;2083032;28;20057;-68
2022/06/06 04:09:42;;;;;;;29.48;26.13;;;18.00;99.90;;;;;;2082358;28;20401;-69
2022/06/06 04:11:01;;;;;;;29.63;26.40;;;18.00;99.90;;;;;;2086562;28;20108;-69
2022/06/06 04:12:27;;;;;;;30.63;26.30;;;18.00;99.90;;;;;;2086378;28;20391;-69
2022/06/06 04:13:42;;;;;;;30.55;24.48;;;18.00;99.90;;;;;;2080456;28;20409;-69
2022/06/06 04:14:59;;;;;;;29.73;23.83;;;18.00;99.90;;;;;;2083423;28;20053;-69
2022/06/06 04:16:18;;;;;;;28.50;22.42;;;18.00;99.90;;;;;;2084608;28;21492;-69
2022/06/06 04:17:48;;;;;;;30.08;21.15;;;17.90;99.90;;;;;;2087015;28;20469;-69
2022/06/06 04:19:16;;;;;;;24.92;20.63;;;17.90;99.90;;;;;;2090669;28;20047;-69
2022/06/06 04:20:23;;;;;;;25.75;20.05;;;17.90;99.90;;;;;;2087312;28;20207;-69
2022/06/06 04:22:05;;;;;;;24.45;20.42;;;17.80;99.90;;;;;;2085758;28;20575;-69
2022/06/06 04:23:22;;;;;;;24.73;19.67;;;17.80;99.90;;;;;;2075488;28;20066;-69
2022/06/06 04:24:45;;;;;;;26.75;19.35;;;17.70;99.90;;;;;;2076345;28;20022;-69
2022/06/06 04:26:00;;;;;;;21.65;19.08;;;17.70;99.90;;;;;;2082910;28;20570;-69
2022/06/06 04:27:12;;;;;;;26.85;19.25;;;17.70;99.90;;;;;;2086858;28;20107;-69
2022/06/06 04:28:39;;;;;;;23.00;18.15;;;17.70;99.90;;;;;;2085860;28;20395;-69
2022/06/06 04:29:52;;;;;;;23.38;19.40;;;17.70;99.90;;;;;;2082021;28;20036;-69
2022/06/06 04:31:08;;;;;;;20.92;18.35;;;17.70;99.90;;;;;;2082246;28;20033;-69
2022/06/06 04:32:18;;;;;;;21.60;18.15;;;17.70;99.90;;;;;;2081480;28;20068;-69
2022/06/06 04:33:23;;;;;;;21.85;17.83;;;17.70;99.90;;;;;;2086499;28;20092;-68
2022/06/06 04:34:34;;;;;;;22.27;19.00;;;17.80;99.90;;;;;;2082441;28;20108;-69
2022/06/06 04:35:40;;;;;;;23.42;18.55;;;17.80;99.90;;;;;;2083588;28;20014;-69
2022/06/06 04:37:21;;;;;;;22.38;17.55;;;17.80;99.90;;;;;;2084977;28;20021;-69
2022/06/06 04:38:30;;;;;;;20.95;17.98;;;17.80;99.90;;;;;;2082073;28;20277;-69
2022/06/06 04:39:47;;;;;;;21.30;18.35;;;17.80;99.90;;;;;;2082503;28;20025;-69
2022/06/06 04:41:03;;;;;;;20.65;17.55;;;17.80;99.90;;;;;;2082519;28;20025;-69
2022/06/06 04:42:08;;;;;;;21.83;17.02;;;17.80;99.90;;;;;;2082791;28;20546;-69
2022/06/06 04:43:12;;;;;;;20.13;16.75;;;17.80;99.90;;;;;;2087610;28;20025;-69
2022/06/06 04:44:19;;;;;;;18.45;16.10;;;17.80;99.90;;;;;;2083509;28;20074;-68
2022/06/06 04:45:36;;;;;;;18.63;15.68;;;17.90;99.90;;;;;;2083163;28;20106;-68
2022/06/06 04:46:42;;;;;;;18.48;15.50;;;17.90;99.90;;;;;;2084231;28;20147;-69
2022/06/06 04:47:43;;;;;;;20.58;16.73;;;17.90;99.90;;;;;;2084773;28;20583;-69
2022/06/06 04:48:46;;;;;;;18.95;15.25;;;17.90;99.90;;;;;;2081068;28;20483;-69
2022/06/06 04:49:47;;;;;;;17.92;15.55;;;17.90;99.90;;;;;;2084242;28;20497;-69
2022/06/06 04:50:48;;;;;;;15.32;13.50;;;17.90;99.90;;;;;;2085622;28;20052;-69
2022/06/06 04:51:50;;;;;;;14.95;13.35;;;17.90;99.90;;;;;;2085940;28;20099;-69
2022/06/06 04:52:58;;;;;;;17.15;13.98;;;17.90;99.90;;;;;;2084721;28;20025;-69
2022/06/06 04:54:01;;;;;;;14.93;12.93;;;17.90;99.90;;;;;;2085337;28;20657;-69
2022/06/06 04:55:06;;;;;;;14.68;13.02;;;17.90;99.90;;;;;;2085487;28;20244;-69
2022/06/06 04:56:08;;;;;;;16.30;13.68;;;17.90;99.90;;;;;;2085543;28;20013;-69
2022/06/06 04:57:11;;;;;;;15.55;13.68;;;18.00;99.90;;;;;;2081167;28;20477;-69
2022/06/06 04:58:13;;;;;;;14.88;13.18;;;17.90;99.90;;;;;;2086920;28;20436;-69
2022/06/06 04:59:15;;;;;;;15.23;12.43;;;17.90;99.90;;;;;;2086347;28;20025;-69
2022/06/06 05:00:16;;;;;;;14.25;12.10;;;18.00;99.90;;;;;;2083565;28;20016;-69
2022/06/06 05:01:17;;;;;;;14.55;12.00;;;18.00;99.90;;;;;;2082641;28;20025;-69
2022/06/06 05:02:21;;;;;;;14.05;11.63;;;18.00;99.90;;;;;;2081402;28;20547;-69
2022/06/06 05:03:22;;;;;;;15.73;12.63;;;18.00;99.90;;;;;;2083945;28;20405;-68
2022/06/06 05:04:23;;;;;;;13.30;11.90;;;18.00;99.90;;;;;;2083774;28;20034;-68
2022/06/06 05:05:35;;;;;;;13.93;11.05;;;18.00;99.90;;;;;;2081361;28;20402;-69
2022/06/06 05:06:49;;;;;;;14.45;11.68;;;18.10;99.90;;;;;;2081190;28;20029;-69
2022/06/06 05:08:39;;;;;;;13.18;10.77;;;18.00;99.90;;;;;;2084447;28;20535;-69
2022/06/06 05:10:03;;;;;;;12.07;10.45;;;18.00;99.90;;;;;;2047487;28;20046;-69
2022/06/06 05:11:09;;;;;;;13.50;10.55;;;18.00;99.90;;;;;;2085498;28;20041;-69
2022/06/06 05:12:31;;;;;;;13.52;11.38;;;18.00;99.90;;;;;;2084297;28;20086;-69
2022/06/06 05:13:58;;;;;;;12.35;9.70;;;18.00;99.90;;;;;;2083537;28;20025;-69
2022/06/06 05:15:11;;;;;;;11.68;10.35;;;17.90;99.90;;;;;;2086937;28;20021;-69
2022/06/06 05:16:37;;;;;;;12.23;10.70;;;17.90;99.90;;;;;;2085268;28;20053;-69
2022/06/06 05:18:14;;;;;;;11.25;9.80;;;17.90;99.90;;;;;;2082064;28;20083;-69
2022/06/06 05:19:39;;;;;;;12.48;10.45;;;17.90;99.90;;;;;;2084236;28;20079;-69
2022/06/06 05:20:56;;;;;;;11.98;9.80;;;17.90;99.90;;;;;;2082882;28;20021;-68
2022/06/06 05:22:46;;;;;;;12.90;10.18;;;18.00;99.90;;;;;;2083916;28;20018;-68
2022/06/06 05:23:49;;;;;;;;;;;17.90;99.90;;;;;;2070649;28;20056;-68
2022/06/06 05:24:59;;;;;;;11.13;9.88;;;17.90;99.90;;;;;;2067220;28;19940;-68
2022/06/06 05:26:15;;;;;;;12.63;9.90;;;17.90;99.90;;;;;;2066373;28;20045;-69
2022/06/06 05:27:56;;;;;;;11.27;9.73;;;17.90;99.90;;;;;;2068675;28;20026;-68
2022/06/06 05:28:59;;;;;;;11.25;10.13;;;17.90;99.90;;;;;;2030918;29;20532;-68
2022/06/06 05:30:10;;;;;;;11.68;9.88;;;18.00;99.90;;;;;;2048174;28;20475;-68
2022/06/06 05:31:14;;;;;;;11.48;10.27;;;17.90;99.90;;;;;;2088484;28;20017;-69
2022/06/06 05:32:32;;;;;;;12.68;9.55;;;18.00;99.90;;;;;;2089179;28;20029;-68
2022/06/06 05:33:45;;;;;;;11.38;9.55;;;17.90;99.90;;;;;;2084616;28;20026;-69
2022/06/06 05:34:56;;;;;;;10.93;9.77;;;17.90;99.90;;;;;;2082498;28;20025;-69
2022/06/06 05:36:18;;;;;;;12.05;9.35;;;17.90;99.90;;;;;;2082552;28;20695;-69
2022/06/06 05:37:54;;;;;;;10.95;9.75;;;17.90;99.90;;;;;;2082098;28;20021;-69
2022/06/06 05:39:22;;;;;;;12.85;9.70;;;17.90;99.90;;;;;;2085782;28;20078;-68
2022/06/06 05:40:28;;;;;;;13.40;9.43;;;18.00;99.90;;;;;;2086517;28;20033;-69
2022/06/06 05:42:10;;;;;;;9.60;8.35;;;17.90;99.90;;;;;;2086891;28;20045;-69
2022/06/06 05:43:37;;;;;;;12.23;9.70;;;17.90;99.90;;;;;;2082283;28;20071;-68
2022/06/06 05:44:52;;;;;;;10.50;9.30;;;17.90;99.90;;;;;;2082888;28;20021;-69
2022/06/06 05:46:12;;;;;;;11.30;10.18;;;17.90;99.90;;;;;;2081510;28;20021;-69
2022/06/06 05:47:54;;;;;;;11.77;9.77;;;17.90;99.90;;;;;;2087258;28;20057;-69
2022/06/06 05:49:00;;;;;;;11.35;9.73;;;17.90;99.90;;;;;;2074441;28;20080;-69
2022/06/06 05:50:16;;;;;;;10.45;9.35;;;17.90;99.90;;;;;;2074190;28;20600;-69
2022/06/06 05:51:34;;;;;;;14.10;9.70;;;17.90;99.90;;;;;;2077903;28;20041;-69
2022/06/06 05:52:57;;;;;;;9.93;8.88;;;18.00;99.90;;;;;;2083049;28;20523;-69
2022/06/06 05:54:23;;;;;;;10.15;9.07;;;18.00;99.90;;;;;;2085727;28;20099;-69
2022/06/06 05:55:39;;;;;;;10.20;8.55;;;18.00;99.90;;;;;;2088560;28;20021;-69
2022/06/06 05:57:11;;;;;;;10.70;9.60;;;18.00;99.90;;;;;;2085769;28;20033;-69
2022/06/06 05:58:40;;;;;;;11.48;9.38;;;18.00;99.90;;;;;;2084168;28;20035;-69
2022/06/06 05:59:59;;;;;;;10.80;9.55;;;18.00;99.90;;;;;;2086564;28;20021;-69
2022/06/06 06:01:03;;;;;;;10.63;9.50;;;18.00;99.90;;;;;;2084847;28;20033;-69